^^
Station Historical Data
 
Daily Summary for June 25, 2019 Units:  English    Metric   Both
« Previous Day
Next Day »
Daily Weekly Monthly Yearly Custom
  Current: High: Low: Average:
Temperature: 70.5 °F 72.4 °F 50.7 °F 57.6 °F
Dew Point: 52 °F 56 °F 48.4 °F 51.4 °F
Humidity: 52% 93% 51% 81%
Wind Speed: 9mph 18mph 3mph 7.8mph
Wind Gust: 19mph 21mph - -
WindWest - - West
Pressure: 29.72 in 29.72 in 29.58 in -
Precipitation: 0 in      
Historical Graphs
 
 
Tabular Data for June 25, 2019
Time Temperature Dew Point Pressure Wind Wind Speed Wind Gust Humidity Rainfall Rate (Hourly) solar Conditions
00:04 54.8 °F 50.4 °F 29.58 in West 3 mph 6 mph 85% 0 in 0.00 W/m2
00:09 54.8 °F 50.4 °F 29.59 in West 3 mph 6 mph 85% 0 in 0.00 W/m2
00:14 54.8 °F 50.7 °F 29.59 in West 6 mph 6 mph 86% 0 in 0.00 W/m2
00:19 54.6 °F 50.5 °F 29.59 in West 4 mph 6 mph 86% 0 in 0.00 W/m2
00:24 54.4 °F 50.3 °F 29.59 in West 3 mph 6 mph 86% 0 in 0.00 W/m2
00:29 54.2 °F 50.4 °F 29.59 in West 3 mph 6 mph 87% 0 in 0.00 W/m2
00:34 54.1 °F 50.3 °F 29.59 in West 7 mph 8 mph 87% 0 in 0.00 W/m2
00:39 54.2 °F 50.7 °F 29.59 in West 6 mph 10 mph 88% 0 in 0.00 W/m2
00:44 53.7 °F 49.9 °F 29.59 in West 4 mph 10 mph 87% 0 in 0.00 W/m2
00:49 53 °F 49.2 °F 29.59 in West 4 mph 10 mph 87% 0 in 0.00 W/m2
00:54 52.5 °F 49 °F 29.59 in West 4 mph 10 mph 88% 0 in 0.00 W/m2
00:59 52.3 °F 49.2 °F 29.59 in West 4 mph 10 mph 89% 0 in 0.00 W/m2
01:04 52.2 °F 49.1 °F 29.59 in West 4 mph 10 mph 89% 0 in 0.00 W/m2
01:09 52 °F 49.2 °F 29.59 in West 6 mph 8 mph 90% 0 in 0.00 W/m2
01:14 52 °F 49.2 °F 29.59 in West 6 mph 8 mph 90% 0 in 0.00 W/m2
01:19 52.2 °F 49.4 °F 29.59 in West 6 mph 7 mph 90% 0 in 0.00 W/m2
01:24 52.2 °F 49.4 °F 29.59 in West 4 mph 7 mph 90% 0 in 0.00 W/m2
01:29 52.1 °F 49.3 °F 29.59 in West 4 mph 7 mph 90% 0 in 0.00 W/m2
01:34 52 °F 49.2 °F 29.59 in West 4 mph 6 mph 90% 0 in 0.00 W/m2
01:39 51.7 °F 48.9 °F 29.59 in West 6 mph 7 mph 90% 0 in 0.00 W/m2
01:44 51.8 °F 49.3 °F 29.59 in WSW 7 mph 11 mph 91% 0 in 0.00 W/m2
01:49 52.1 °F 49.6 °F 29.59 in WSW 3 mph 11 mph 91% 0 in 0.00 W/m2
01:54 51.9 °F 49.4 °F 29.60 in WSW 4 mph 11 mph 91% 0 in 0.00 W/m2
01:59 52 °F 49.5 °F 29.60 in WSW 4 mph 11 mph 91% 0 in 0.00 W/m2
02:04 51.8 °F 49 °F 29.60 in WSW 4 mph 7 mph 90% 0 in 0.00 W/m2
02:09 51.6 °F 48.8 °F 29.60 in WSW 4 mph 7 mph 90% 0 in 0.00 W/m2
02:14 51.5 °F 49 °F 29.60 in WSW 5 mph 7 mph 91% 0 in 0.00 W/m2
02:19 51.2 °F 48.7 °F 29.60 in WSW 8 mph 8 mph 91% 0 in 0.00 W/m2
02:24 51 °F 48.5 °F 29.60 in WSW 7 mph 8 mph 91% 0 in 0.00 W/m2
02:29 50.9 °F 48.4 °F 29.60 in WSW 7 mph 9 mph 91% 0 in 0.00 W/m2
02:34 50.8 °F 48.6 °F 29.60 in WSW 8 mph 9 mph 92% 0 in 0.00 W/m2
02:39 50.7 °F 48.5 °F 29.60 in WSW 8 mph 9 mph 92% 0 in 0.00 W/m2
02:44 50.9 °F 48.7 °F 29.60 in WSW 9 mph 9 mph 92% 0 in 0.00 W/m2
02:49 51.1 °F 48.9 °F 29.60 in WSW 5 mph 9 mph 92% 0 in 0.00 W/m2
02:54 51.1 °F 49.1 °F 29.61 in WSW 7 mph 9 mph 93% 0 in 0.00 W/m2
02:59 51.4 °F 49.4 °F 29.60 in West 8 mph 8 mph 93% 0 in 0.00 W/m2
03:04 51.5 °F 49.3 °F 29.61 in WSW 7 mph 9 mph 92% 0 in 0.00 W/m2
03:09 51.6 °F 49.4 °F 29.61 in WSW 5 mph 9 mph 92% 0 in 0.00 W/m2
03:14 51.7 °F 49.5 °F 29.60 in West 6 mph 9 mph 92% 0 in 0.00 W/m2
03:19 51.8 °F 49.8 °F 29.61 in West 6 mph 9 mph 93% 0 in 0.00 W/m2
03:24 52 °F 49.7 °F 29.61 in West 4 mph 9 mph 92% 0 in 0.00 W/m2
03:29 52.2 °F 49.9 °F 29.61 in WNW 6 mph 9 mph 92% 0 in 0.00 W/m2
03:34 52.5 °F 50.2 °F 29.61 in WNW 7 mph 8 mph 92% 0 in 0.00 W/m2
03:39 52.9 °F 50.6 °F 29.61 in WNW 5 mph 9 mph 92% 0 in 0.00 W/m2
03:44 53.2 °F 50.6 °F 29.61 in NW 4 mph 9 mph 91% 0 in 0.00 W/m2
03:49 53.5 °F 50.9 °F 29.61 in WNW 7 mph 9 mph 91% 0 in 0.00 W/m2
03:54 53.7 °F 51.1 °F 29.62 in WNW 7 mph 10 mph 91% 0 in 0.00 W/m2
03:59 53.9 °F 51 °F 29.62 in WNW 4 mph 10 mph 90% 0 in 0.00 W/m2
04:04 53.9 °F 51 °F 29.62 in WNW 5 mph 10 mph 90% 0 in 0.00 W/m2
04:09 53.8 °F 50.9 °F 29.62 in WNW 5 mph 10 mph 90% 0 in 0.00 W/m2
04:14 53.7 °F 50.8 °F 29.62 in WNW 5 mph 10 mph 90% 0 in 0.00 W/m2
04:19 53.9 °F 51 °F 29.62 in WNW 5 mph 10 mph 90% 0 in 0.00 W/m2
04:24 53.9 °F 50.7 °F 29.62 in WNW 7 mph 10 mph 89% 0 in 0.00 W/m2
04:29 53.9 °F 50.7 °F 29.62 in WNW 6 mph 10 mph 89% 0 in 0.00 W/m2
04:34 53.7 °F 50.5 °F 29.62 in West 10 mph 10 mph 89% 0 in 0.00 W/m2
04:39 53.6 °F 50.4 °F 29.62 in WNW 6 mph 10 mph 89% 0 in 0.00 W/m2
04:44 53.5 °F 50.3 °F 29.62 in WNW 3 mph 9 mph 89% 0 in 0.00 W/m2
04:49 53.3 °F 50.1 °F 29.62 in WNW 4 mph 10 mph 89% 0 in 0.00 W/m2
04:54 53.2 °F 50 °F 29.62 in WNW 4 mph 10 mph 89% 0 in 0.00 W/m2
04:59 52.9 °F 49.7 °F 29.63 in WNW 4 mph 7 mph 89% 0 in 0.00 W/m2
05:04 52.7 °F 49.8 °F 29.63 in WNW 7 mph 7 mph 90% 0 in 0.00 W/m2
05:09 52.8 °F 49.9 °F 29.63 in NW 4 mph 10 mph 90% 0 in 0.00 W/m2
05:14 53.2 °F 50.3 °F 29.63 in WNW 7 mph 10 mph 90% 0 in 0.00 W/m2
05:19 53 °F 50.1 °F 29.64 in WNW 4 mph 10 mph 90% 0 in 0.00 W/m2
05:24 53 °F 50.1 °F 29.64 in WNW 8 mph 10 mph 90% 0 in 0.00 W/m2
05:29 52.8 °F 49.9 °F 29.64 in WNW 5 mph 9 mph 90% 0 in 0.00 W/m2
05:34 52.8 °F 49.9 °F 29.64 in WNW 4 mph 9 mph 90% 0 in 0.00 W/m2
05:39 52.7 °F 49.8 °F 29.64 in WNW 5 mph 9 mph 90% 0 in 0.00 W/m2
05:44 52.6 °F 49.8 °F 29.64 in WNW 4 mph 8 mph 90% 0 in 0.00 W/m2
05:49 52.5 °F 49.7 °F 29.64 in NW 5 mph 8 mph 90% 0 in 5.00 W/m2
05:54 52.4 °F 49.6 °F 29.65 in NW 5 mph 8 mph 90% 0 in 7.00 W/m2
05:59 52.4 °F 49.8 °F 29.65 in NW 4 mph 8 mph 91% 0 in 9.00 W/m2
06:04 52.4 °F 49.6 °F 29.65 in NW 5 mph 9 mph 90% 0 in 11.00 W/m2
06:09 52.4 °F 49.8 °F 29.65 in NW 5 mph 9 mph 91% 0 in 12.00 W/m2
06:14 52.7 °F 49.8 °F 29.65 in WNW 5 mph 9 mph 90% 0 in 14.00 W/m2
06:19 52.8 °F 49.9 °F 29.66 in NW 4 mph 9 mph 90% 0 in 16.00 W/m2
06:24 52.8 °F 49.9 °F 29.66 in NW 5 mph 9 mph 90% 0 in 18.00 W/m2
06:29 53 °F 50.1 °F 29.65 in WNW 7 mph 11 mph 90% 0 in 19.00 W/m2
06:34 53.1 °F 50.2 °F 29.65 in WNW 5 mph 11 mph 90% 0 in 21.00 W/m2
06:39 53.2 °F 50 °F 29.66 in WNW 6 mph 12 mph 89% 0 in 23.00 W/m2
06:44 53.1 °F 49.9 °F 29.66 in WNW 7 mph 12 mph 89% 0 in 25.00 W/m2
06:49 53 °F 50.1 °F 29.66 in WNW 8 mph 12 mph 90% 0 in 26.00 W/m2
06:54 53.1 °F 50.2 °F 29.66 in West 8 mph 12 mph 90% 0 in 26.00 W/m2
06:59 53.2 °F 50.3 °F 29.66 in WNW 8 mph 12 mph 90% 0 in 28.00 W/m2
07:04 53.2 °F 50.3 °F 29.66 in West 7 mph 12 mph 90% 0 in 30.00 W/m2
07:09 53.3 °F 50.4 °F 29.66 in West 9 mph 10 mph 90% 0 in 30.00 W/m2
07:14 53.5 °F 50.6 °F 29.66 in West 9 mph 10 mph 90% 0 in 32.00 W/m2
07:19 53.6 °F 50.7 °F 29.66 in West 7 mph 10 mph 90% 0 in 33.00 W/m2
07:24 53.7 °F 50.5 °F 29.66 in West 10 mph 11 mph 89% 0 in 33.00 W/m2
07:29 53.9 °F 50.7 °F 29.67 in West 9 mph 12 mph 89% 0 in 35.00 W/m2
07:34 54.2 °F 51 °F 29.67 in WSW 9 mph 12 mph 89% 0 in 169.00 W/m2
07:39 54.4 °F 51.2 °F 29.67 in WSW 5 mph 12 mph 89% 0 in 183.00 W/m2
07:44 54.8 °F 51.6 °F 29.67 in West 6 mph 12 mph 89% 0 in 186.00 W/m2
07:49 55 °F 51.8 °F 29.68 in West 7 mph 12 mph 89% 0 in 176.00 W/m2
07:54 55.3 °F 51.8 °F 29.67 in West 8 mph 11 mph 88% 0 in 178.00 W/m2
07:59 55.6 °F 52.1 °F 29.67 in WNW 7 mph 11 mph 88% 0 in 236.00 W/m2
08:04 56.2 °F 52.7 °F 29.67 in West 7 mph 11 mph 88% 0 in 257.00 W/m2
08:09 56.6 °F 52.5 °F 29.68 in West 8 mph 11 mph 86% 0 in 278.00 W/m2
08:14 56.9 °F 52.4 °F 29.68 in WNW 10 mph 12 mph 85% 0 in 295.00 W/m2
08:19 57.3 °F 52.8 °F 29.68 in West 10 mph 13 mph 85% 0 in 316.00 W/m2
08:24 57.6 °F 52.8 °F 29.68 in West 9 mph 14 mph 84% 0 in 332.00 W/m2
08:29 58.1 °F 53 °F 29.68 in West 11 mph 14 mph 83% 0 in 352.00 W/m2
08:34 58.7 °F 53.2 °F 29.68 in WNW 10 mph 16 mph 82% 0 in 373.00 W/m2
08:39 59.1 °F 52.9 °F 29.68 in WNW 15 mph 18 mph 80% 0 in 388.00 W/m2
08:44 59.5 °F 53 °F 29.69 in WNW 11 mph 18 mph 79% 0 in 403.00 W/m2
08:49 59.6 °F 52.7 °F 29.69 in West 11 mph 16 mph 78% 0 in 417.00 W/m2
08:54 59.8 °F 52.9 °F 29.69 in West 9 mph 18 mph 78% 0 in 431.00 W/m2
08:59 59.9 °F 52.3 °F 29.69 in WNW 16 mph 18 mph 76% 0 in 441.00 W/m2
09:04 60.3 °F 52.7 °F 29.69 in West 13 mph 18 mph 76% 0 in 455.00 W/m2
09:09 60.5 °F 52.9 °F 29.69 in West 10 mph 19 mph 76% 0 in 469.00 W/m2
09:14 60.9 °F 53.3 °F 29.70 in West 14 mph 19 mph 76% 0 in 483.00 W/m2
09:19 61.2 °F 53.2 °F 29.70 in West 10 mph 19 mph 75% 0 in 497.00 W/m2
09:24 61.7 °F 53.7 °F 29.70 in West 15 mph 19 mph 75% 0 in 510.00 W/m2
09:29 61.7 °F 53 °F 29.70 in West 11 mph 20 mph 73% 0 in 526.00 W/m2
09:34 62 °F 52.9 °F 29.70 in West 12 mph 20 mph 72% 0 in 538.00 W/m2
09:39 62.4 °F 53.6 °F 29.70 in West 11 mph 20 mph 73% 0 in 550.00 W/m2
09:44 62.8 °F 54 °F 29.70 in West 14 mph 17 mph 73% 0 in 564.00 W/m2
09:49 63 °F 53.4 °F 29.70 in WSW 11 mph 17 mph 71% 0 in 578.00 W/m2
09:54 63.5 °F 53.9 °F 29.70 in West 9 mph 17 mph 71% 0 in 591.00 W/m2
09:59 63.8 °F 54.2 °F 29.70 in West 10 mph 17 mph 71% 0 in 603.00 W/m2
10:04 64 °F 54 °F 29.70 in WNW 8 mph 17 mph 70% 0 in 621.00 W/m2
10:09 64.4 °F 53.6 °F 29.70 in WSW 11 mph 17 mph 68% 0 in 633.00 W/m2
10:14 64.5 °F 54.5 °F 29.70 in WNW 13 mph 17 mph 70% 0 in 643.00 W/m2
10:19 64.8 °F 53.6 °F 29.70 in West 11 mph 17 mph 67% 0 in 654.00 W/m2
10:24 65.1 °F 54.3 °F 29.70 in WSW 13 mph 15 mph 68% 0 in 668.00 W/m2
10:29 65.6 °F 54.3 °F 29.70 in West 9 mph 15 mph 67% 0 in 680.00 W/m2
10:34 65.8 °F 54.1 °F 29.70 in WSW 11 mph 15 mph 66% 0 in 691.00 W/m2
10:39 66 °F 53.9 °F 29.70 in West 11 mph 15 mph 65% 0 in 701.00 W/m2
10:44 66.4 °F 53.8 °F 29.70 in WSW 12 mph 17 mph 64% 0 in 708.00 W/m2
10:49 66.8 °F 54.7 °F 29.70 in West 12 mph 17 mph 65% 0 in 722.00 W/m2
10:54 67 °F 54.4 °F 29.70 in WSW 12 mph 17 mph 64% 0 in 733.00 W/m2
10:59 67.2 °F 54.6 °F 29.70 in West 8 mph 17 mph 64% 0 in 744.00 W/m2
11:04 67.4 °F 54.8 °F 29.70 in West 8 mph 17 mph 64% 0 in 752.00 W/m2
11:09 67.9 °F 54 °F 29.70 in West 12 mph 17 mph 61% 0 in 763.00 W/m2
11:14 68.3 °F 55.2 °F 29.70 in NW 8 mph 17 mph 63% 0 in 773.00 W/m2
11:19 68.4 °F 54.4 °F 29.70 in WNW 7 mph 16 mph 61% 0 in 780.00 W/m2
11:24 69 °F 55 °F 29.70 in WNW 11 mph 17 mph 61% 0 in 789.00 W/m2
11:29 69.2 °F 53.8 °F 29.70 in WNW 9 mph 18 mph 58% 0 in 793.00 W/m2
11:34 69.1 °F 53.7 °F 29.70 in WNW 11 mph 20 mph 58% 0 in 766.00 W/m2
11:39 69.2 °F 53.3 °F 29.70 in WNW 11 mph 21 mph 57% 0 in 731.00 W/m2
11:44 69.7 °F 54.7 °F 29.70 in WSW 11 mph 21 mph 59% 0 in 710.00 W/m2
11:49 69.8 °F 53.4 °F 29.71 in West 12 mph 21 mph 56% 0 in 728.00 W/m2
11:54 70.7 °F 55.2 °F 29.71 in WNW 8 mph 21 mph 58% 0 in 761.00 W/m2
11:59 70.8 °F 53.3 °F 29.71 in West 13 mph 18 mph 54% 0 in 838.00 W/m2
12:04 70.6 °F 54.6 °F 29.71 in WNW 7 mph 18 mph 57% 0 in 867.00 W/m2
12:09 71 °F 54.5 °F 29.71 in NW 13 mph 17 mph 56% 0 in 868.00 W/m2
12:14 71.1 °F 56 °F 29.71 in WNW 18 mph 19 mph 59% 0 in 881.00 W/m2
12:19 71 °F 54 °F 29.71 in WNW 17 mph 21 mph 55% 0 in 900.00 W/m2
12:24 71.2 °F 53.7 °F 29.71 in WNW 11 mph 21 mph 54% 0 in 947.00 W/m2
12:29 71.6 °F 53 °F 29.71 in WNW 7 mph 21 mph 52% 0 in 979.00 W/m2
12:34 72 °F 54.9 °F 29.71 in West 14 mph 21 mph 55% 0 in 1004.00 W/m2
12:39 72.4 °F 53.8 °F 29.71 in WNW 12 mph 21 mph 52% 0 in 1058.00 W/m2
12:44 72 °F 52.9 °F 29.71 in WNW 18 mph 21 mph 51% 0 in 220.00 W/m2
12:49 70.8 °F 52.3 °F 29.71 in WNW 12 mph 21 mph 52% 0 in 236.00 W/m2
12:54 70.5 °F 52 °F 29.72 in West 9 mph 19 mph 52% 0 in 236.00 W/m2
Bismarck, North Dakota, USA
Compliments of Weather Underground - 2 mb